createdAt,value
2022-07-26T00:00:05.430Z,58.02
2022-07-26T00:03:07.223Z,57.73
2022-07-26T00:06:09.603Z,57.24
2022-07-26T00:09:11.557Z,56.51
2022-07-26T00:12:13.283Z,56.08
2022-07-26T00:15:14.899Z,56.09
2022-07-26T00:18:17.721Z,55.86
2022-07-26T00:21:19.355Z,55.83
2022-07-26T00:24:20.963Z,55.54
2022-07-26T00:27:22.788Z,55.12
2022-07-26T00:30:27.841Z,55.11
2022-07-26T00:33:29.559Z,54.98
2022-07-26T00:36:31.170Z,55.28
2022-07-26T00:39:33.017Z,55.38
2022-07-26T00:42:34.871Z,55.14
2022-07-26T00:45:36.603Z,55.34
2022-07-26T00:48:38.211Z,55.32
2022-07-26T00:51:39.966Z,55.54
2022-07-26T00:54:45.809Z,55.46
2022-07-26T00:57:47.742Z,55.57
2022-07-26T01:00:49.710Z,55.78
2022-07-26T01:03:53.234Z,55.95
2022-07-26T01:06:55.210Z,55.95
2022-07-26T01:09:57.205Z,56.52
2022-07-26T01:12:59.003Z,56.69
2022-07-26T01:16:00.648Z,56.57
2022-07-26T01:19:02.315Z,56.81
2022-07-26T01:22:03.976Z,56.92
2022-07-26T01:25:09.512Z,57.06
2022-07-26T01:28:11.167Z,57.11
2022-07-26T01:31:21.890Z,57.38
2022-07-26T01:34:23.654Z,57.33
2022-07-26T01:37:25.283Z,57.63
2022-07-26T01:40:26.994Z,58.13
2022-07-26T01:43:28.673Z,57.94
2022-07-26T01:46:30.538Z,58.27
2022-07-26T01:49:32.148Z,58.43
2022-07-26T01:52:35.573Z,58.48
2022-07-26T01:55:37.433Z,58.51
2022-07-26T01:58:40.811Z,58.52
2022-07-26T02:01:42.498Z,58.71
2022-07-26T02:04:59.082Z,58.77
2022-07-26T02:08:00.730Z,59.15
2022-07-26T02:11:04.046Z,59.44
2022-07-26T02:14:06.138Z,59.75
2022-07-26T02:17:08.197Z,59.76
2022-07-26T02:20:10.147Z,60.09
2022-07-26T02:23:12.210Z,60.18
2022-07-26T02:26:13.809Z,60.42
2022-07-26T02:29:15.688Z,60.67
2022-07-26T02:32:17.358Z,61.02
2022-07-26T02:35:19.185Z,61.10
2022-07-26T02:38:20.827Z,61.31
2022-07-26T02:41:23.910Z,61.38
2022-07-26T02:44:27.118Z,61.58
2022-07-26T02:47:28.910Z,61.98
2022-07-26T02:50:30.636Z,62.18
2022-07-26T02:53:32.982Z,62.39
2022-07-26T02:56:34.526Z,62.44
2022-07-26T02:59:37.050Z,62.53
2022-07-26T03:02:39.242Z,62.75
2022-07-26T03:05:40.979Z,63.19
2022-07-26T03:08:42.561Z,63.20
2022-07-26T03:11:44.241Z,63.37
2022-07-26T03:14:45.832Z,63.45
2022-07-26T03:17:47.469Z,63.82
2022-07-26T03:20:49.984Z,64.15
2022-07-26T03:23:51.608Z,64.23
2022-07-26T03:26:53.215Z,64.30
2022-07-26T03:29:54.861Z,64.34
2022-07-26T03:32:56.520Z,64.56
2022-07-26T03:35:58.104Z,65.04
2022-07-26T03:39:00.489Z,65.31
2022-07-26T03:42:02.126Z,65.41
2022-07-26T03:45:04.084Z,65.31
2022-07-26T03:48:06.084Z,65.72
2022-07-26T03:51:07.887Z,65.45
2022-07-26T03:54:09.996Z,65.67
2022-07-26T03:57:11.940Z,65.58
2022-07-26T04:00:13.952Z,65.68
2022-07-26T04:03:15.511Z,65.69
2022-07-26T04:06:17.120Z,65.76
2022-07-26T04:09:19.332Z,66.05
2022-07-26T04:12:21.025Z,66.26
2022-07-26T04:15:22.871Z,66.41
2022-07-26T04:18:24.743Z,66.42
2022-07-26T04:21:26.560Z,66.53
2022-07-26T04:24:28.256Z,67.23
2022-07-26T04:27:30.210Z,67.29
2022-07-26T04:30:31.919Z,67.04
2022-07-26T04:33:33.816Z,67.43
2022-07-26T04:36:35.420Z,67.64
2022-07-26T04:39:37.049Z,67.48
2022-07-26T04:42:38.805Z,67.99
2022-07-26T04:45:40.528Z,67.70
2022-07-26T04:48:42.309Z,67.53
2022-07-26T04:51:59.704Z,67.66
2022-07-26T04:55:01.362Z,67.54
2022-07-26T04:58:03.862Z,67.92
2022-07-26T05:01:10.410Z,67.63
2022-07-26T05:04:13.111Z,67.33
2022-07-26T05:07:14.705Z,67.65
2022-07-26T05:10:18.113Z,67.76
2022-07-26T05:13:23.078Z,68.11
2022-07-26T05:16:31.489Z,69.01
2022-07-26T05:19:34.458Z,70.06
2022-07-26T05:22:36.920Z,70.93
2022-07-26T05:25:39.130Z,71.98
2022-07-26T05:28:40.944Z,72.34
2022-07-26T05:31:42.904Z,72.91
2022-07-26T05:34:44.513Z,73.30
2022-07-26T05:37:46.346Z,73.55
2022-07-26T05:40:50.668Z,73.47
2022-07-26T05:43:52.747Z,73.38
2022-07-26T05:46:58.178Z,73.04
2022-07-26T05:50:00.479Z,73.19
2022-07-26T05:53:02.221Z,72.74
2022-07-26T05:56:21.798Z,72.52
2022-07-26T05:59:23.410Z,71.85
2022-07-26T06:02:25.208Z,71.67
2022-07-26T06:05:26.899Z,71.11
2022-07-26T06:08:28.758Z,69.70
2022-07-26T06:11:30.356Z,67.52
2022-07-26T06:14:31.986Z,67.18
2022-07-26T06:17:34.909Z,63.61
2022-07-26T06:20:41.646Z,61.91
2022-07-26T06:23:43.223Z,61.62
2022-07-26T06:26:56.791Z,61.11
2022-07-26T06:29:59.623Z,60.44
2022-07-26T06:33:01.355Z,61.10
2022-07-26T06:36:06.169Z,61.51
2022-07-26T06:39:10.800Z,62.17
2022-07-26T06:42:12.996Z,62.19
2022-07-26T06:45:17.164Z,62.51
2022-07-26T06:48:18.822Z,62.61
2022-07-26T06:51:22.472Z,62.98
2022-07-26T06:54:24.468Z,63.09
2022-07-26T06:57:26.537Z,63.64
2022-07-26T07:00:29.142Z,63.02
2022-07-26T07:03:30.932Z,63.01
2022-07-26T07:06:32.804Z,63.50
2022-07-26T07:09:36.012Z,62.33
2022-07-26T07:12:38.045Z,62.52
2022-07-26T07:15:42.030Z,62.93
2022-07-26T07:18:44.105Z,63.03
2022-07-26T07:21:47.193Z,62.60
2022-07-26T07:24:48.861Z,62.68
2022-07-26T07:27:50.730Z,61.97
2022-07-26T07:30:52.519Z,61.76
2022-07-26T07:33:54.193Z,60.94
2022-07-26T07:36:57.157Z,60.31
2022-07-26T07:40:00.937Z,59.82
2022-07-26T07:43:02.670Z,59.57
2022-07-26T07:46:05.004Z,59.09
2022-07-26T07:49:07.419Z,58.93
2022-07-26T07:52:09.452Z,59.07
2022-07-26T07:55:36.697Z,58.17
2022-07-26T07:58:33.197Z,57.23
2022-07-26T08:01:39.655Z,57.46
2022-07-26T08:04:42.523Z,56.88
2022-07-26T08:07:45.367Z,56.56
2022-07-26T08:10:51.548Z,55.72
2022-07-26T08:13:54.199Z,56.30
2022-07-26T08:17:01.062Z,57.11
2022-07-26T08:20:06.205Z,56.07
2022-07-26T08:23:11.164Z,55.33
2022-07-26T08:26:12.914Z,55.43
2022-07-26T08:29:14.819Z,55.13
2022-07-26T08:32:16.787Z,55.40
2022-07-26T08:35:19.731Z,55.19
2022-07-26T08:38:22.901Z,54.46
2022-07-26T08:41:24.831Z,53.20
2022-07-26T08:44:26.714Z,52.36
2022-07-26T08:47:37.589Z,51.70
2022-07-26T08:50:45.413Z,52.33
2022-07-26T08:53:48.204Z,52.29
2022-07-26T08:56:53.254Z,55.07
2022-07-26T09:00:19.293Z,58.35
2022-07-26T09:03:31.633Z,60.74
2022-07-26T09:06:33.417Z,62.42
2022-07-26T09:09:56.466Z,63.87
2022-07-26T09:13:01.365Z,64.96
2022-07-26T09:16:14.414Z,66.35
2022-07-26T09:19:22.184Z,67.17
2022-07-26T09:22:23.913Z,66.97
2022-07-26T09:25:26.721Z,67.06
2022-07-26T09:28:31.334Z,68.07
2022-07-26T09:31:35.676Z,68.70
2022-07-26T09:34:44.511Z,68.59
2022-07-26T09:37:54.068Z,68.01
2022-07-26T09:40:55.846Z,68.18
2022-07-26T09:44:01.946Z,67.58
2022-07-26T09:47:03.704Z,69.49
2022-07-26T09:50:13.012Z,72.32
2022-07-26T09:53:14.896Z,73.13
2022-07-26T09:56:19.976Z,75.11
2022-07-26T09:59:23.536Z,75.96
2022-07-26T10:02:25.795Z,75.79
2022-07-26T10:05:28.514Z,76.83
2022-07-26T10:08:31.493Z,75.96
2022-07-26T10:12:07.287Z,74.77
2022-07-26T10:15:46.881Z,73.87
2022-07-26T10:18:50.259Z,73.60
2022-07-26T10:22:35.086Z,72.30
2022-07-26T10:25:49.318Z,69.44
2022-07-26T10:28:53.460Z,69.20
2022-07-26T10:36:38.623Z,67.41
2022-07-26T10:39:41.088Z,66.17
2022-07-26T10:42:55.652Z,67.16
2022-07-26T10:46:20.651Z,67.52
2022-07-26T10:49:34.493Z,68.09
2022-07-26T10:52:36.411Z,69.82
2022-07-26T10:56:16.152Z,70.30
2022-07-26T10:59:55.720Z,69.96
2022-07-26T11:03:00.159Z,70.71
2022-07-26T11:06:17.390Z,70.73
2022-07-26T11:09:21.188Z,70.34
2022-07-26T11:12:23.757Z,69.57
2022-07-26T11:15:25.467Z,69.54
2022-07-26T11:18:30.763Z,67.75
2022-07-26T11:21:32.432Z,67.32
2022-07-26T11:24:40.853Z,67.65
2022-07-26T11:28:02.080Z,68.18
2022-07-26T11:31:10.189Z,67.75
2022-07-26T11:34:22.154Z,66.93
2022-07-26T11:37:23.798Z,66.44
2022-07-26T11:40:47.617Z,65.75
2022-07-26T11:43:50.567Z,65.87
2022-07-26T11:46:52.866Z,65.18
2022-07-26T11:50:14.267Z,65.74
2022-07-26T11:53:22.910Z,64.65
2022-07-26T11:56:24.754Z,63.63
2022-07-26T11:59:32.696Z,61.59
2022-07-26T12:02:34.378Z,60.74
2022-07-26T12:05:36.667Z,61.76
2022-07-26T12:08:43.938Z,60.65
2022-07-26T12:11:47.942Z,60.40
2022-07-26T12:15:04.810Z,58.62
2022-07-26T12:18:07.289Z,58.36
2022-07-26T12:21:09.689Z,57.78
2022-07-26T12:24:13.594Z,57.73
2022-07-26T12:27:15.397Z,58.26
2022-07-26T12:30:17.414Z,59.04
2022-07-26T12:33:19.017Z,59.34
2022-07-26T12:36:27.945Z,59.76
2022-07-26T12:39:30.994Z,61.74
2022-07-26T12:42:38.916Z,61.33
2022-07-26T12:45:40.776Z,62.31
2022-07-26T12:48:45.536Z,63.35
2022-07-26T12:51:47.261Z,63.85
2022-07-26T12:54:51.777Z,63.59
2022-07-26T12:57:55.723Z,63.53
2022-07-26T13:00:57.652Z,64.24
2022-07-26T13:04:00.107Z,64.59
2022-07-26T13:07:01.920Z,64.37
2022-07-26T13:10:31.797Z,65.05
2022-07-26T13:13:27.276Z,64.89
2022-07-26T13:16:28.942Z,63.62
2022-07-26T13:19:31.143Z,62.96
2022-07-26T13:22:32.779Z,62.38
2022-07-26T13:25:38.327Z,61.98
2022-07-26T13:28:41.674Z,61.98
2022-07-26T13:31:43.423Z,61.69
2022-07-26T13:34:45.044Z,60.89
2022-07-26T13:37:46.652Z,59.95
2022-07-26T13:40:50.367Z,59.20
2022-07-26T13:43:56.588Z,58.82
2022-07-26T13:46:58.204Z,58.83
2022-07-26T13:49:59.921Z,59.23
2022-07-26T13:53:01.730Z,58.71
2022-07-26T13:56:04.243Z,58.33
2022-07-26T13:59:05.968Z,57.65
2022-07-26T14:02:07.726Z,58.49
2022-07-26T14:05:09.689Z,58.69
2022-07-26T14:08:11.345Z,58.98
2022-07-26T14:11:12.959Z,59.21
2022-07-26T14:14:15.003Z,59.57
2022-07-26T14:17:17.044Z,59.48
2022-07-26T14:20:18.816Z,59.28
2022-07-26T14:23:20.556Z,58.23
2022-07-26T14:26:22.577Z,57.97
2022-07-26T14:29:24.263Z,57.79
2022-07-26T14:32:25.961Z,58.52
2022-07-26T14:35:28.085Z,59.15
2022-07-26T14:38:30.268Z,58.27
2022-07-26T14:41:32.116Z,58.35
2022-07-26T14:44:34.666Z,57.81
2022-07-26T14:47:46.078Z,57.80
2022-07-26T14:51:08.808Z,57.40
2022-07-26T14:54:09.798Z,56.42
2022-07-26T14:57:11.626Z,55.96
2022-07-26T15:00:17.315Z,54.89
2022-07-26T15:03:19.011Z,54.75
2022-07-26T15:06:20.705Z,53.66
2022-07-26T15:09:22.326Z,53.14
2022-07-26T15:12:24.032Z,53.04
2022-07-26T15:15:26.067Z,52.84
2022-07-26T15:18:27.703Z,53.00
2022-07-26T15:21:29.306Z,52.82
2022-07-26T15:24:32.489Z,52.84
2022-07-26T15:27:35.864Z,53.01
2022-07-26T15:30:37.587Z,53.51
2022-07-26T15:33:39.190Z,53.82
2022-07-26T15:36:41.418Z,53.88
2022-07-26T15:39:43.071Z,54.58
2022-07-26T15:42:45.703Z,55.20
2022-07-26T15:45:48.150Z,54.99
2022-07-26T15:48:51.302Z,54.82
2022-07-26T15:51:52.945Z,55.15
2022-07-26T15:54:54.585Z,54.61
2022-07-26T16:00:58.106Z,55.32
2022-07-26T16:04:01.010Z,55.17
2022-07-26T16:07:05.532Z,55.74
2022-07-26T16:10:08.248Z,55.70
2022-07-26T16:13:09.912Z,55.39
2022-07-26T16:16:12.390Z,54.44
2022-07-26T16:19:14.480Z,55.19
2022-07-26T16:22:17.658Z,55.38
2022-07-26T16:25:19.284Z,54.80
2022-07-26T16:28:20.986Z,54.72
2022-07-26T16:31:22.711Z,54.67
2022-07-26T16:34:24.534Z,55.26
2022-07-26T16:37:26.193Z,55.52
2022-07-26T16:40:27.981Z,55.42
2022-07-26T16:43:29.735Z,55.92
2022-07-26T16:46:31.629Z,55.31
2022-07-26T16:49:35.389Z,55.05
2022-07-26T16:52:39.564Z,55.39
2022-07-26T16:55:41.234Z,55.36
2022-07-26T16:58:42.869Z,55.36
2022-07-26T17:01:48.320Z,55.80
2022-07-26T17:04:50.355Z,56.06
2022-07-26T17:07:51.995Z,57.04
2022-07-26T17:10:53.633Z,55.83
2022-07-26T17:13:55.298Z,56.12
2022-07-26T17:16:59.599Z,56.29
2022-07-26T17:20:01.205Z,55.77
2022-07-26T17:23:02.854Z,55.37
2022-07-26T17:26:04.752Z,55.39
2022-07-26T17:29:06.355Z,55.42
2022-07-26T17:32:08.729Z,55.39
2022-07-26T17:35:10.579Z,55.33
2022-07-26T17:38:12.262Z,55.64
2022-07-26T17:41:18.288Z,55.80
2022-07-26T17:44:21.470Z,56.29
2022-07-26T17:47:27.941Z,56.26
2022-07-26T17:50:36.976Z,55.96
2022-07-26T17:53:42.835Z,55.74
2022-07-26T17:56:44.433Z,55.63
2022-07-26T17:59:46.096Z,56.42
2022-07-26T18:02:48.717Z,55.72
2022-07-26T18:05:51.135Z,56.29
2022-07-26T18:08:52.933Z,56.09
2022-07-26T18:11:54.631Z,56.35
2022-07-26T18:14:56.691Z,56.07
2022-07-26T18:17:59.072Z,56.07
2022-07-26T18:21:00.712Z,55.79
2022-07-26T18:24:16.333Z,56.46
2022-07-26T18:27:19.632Z,56.67
2022-07-26T18:30:21.501Z,55.73
2022-07-26T18:33:23.245Z,56.39
2022-07-26T18:36:25.031Z,56.25
2022-07-26T18:39:30.491Z,56.28
2022-07-26T18:42:36.201Z,56.36
2022-07-26T18:45:37.880Z,56.23
2022-07-26T18:48:41.703Z,56.35
2022-07-26T18:51:44.863Z,56.09
2022-07-26T18:54:50.199Z,56.36
2022-07-26T18:57:53.617Z,57.14
2022-07-26T19:00:55.516Z,57.03
2022-07-26T19:03:57.326Z,56.75
2022-07-26T19:06:59.008Z,56.85
2022-07-26T19:10:00.630Z,56.62
2022-07-26T19:13:02.292Z,56.27
2022-07-26T19:16:04.121Z,56.70
2022-07-26T19:19:05.782Z,56.11
2022-07-26T19:22:07.479Z,56.01
2022-07-26T19:25:16.355Z,55.22
2022-07-26T19:28:18.064Z,54.66
2022-07-26T19:31:19.827Z,54.54
2022-07-26T19:34:21.470Z,55.05
2022-07-26T19:37:23.185Z,55.99
2022-07-26T19:40:25.041Z,56.04
2022-07-26T19:43:27.307Z,55.26
2022-07-26T19:46:31.243Z,55.88
2022-07-26T19:49:32.884Z,56.03
2022-07-26T19:52:35.064Z,55.75
2022-07-26T19:55:38.380Z,55.95
2022-07-26T19:58:40.055Z,56.05
2022-07-26T20:01:41.749Z,55.68
2022-07-26T20:04:46.205Z,55.86
2022-07-26T20:07:49.949Z,56.15
2022-07-26T20:10:52.300Z,56.42
2022-07-26T20:13:55.360Z,56.67
2022-07-26T20:16:58.148Z,56.89
2022-07-26T20:19:59.865Z,57.36
2022-07-26T20:23:03.563Z,57.43
2022-07-26T20:26:05.283Z,57.71
2022-07-26T20:29:07.483Z,57.58
2022-07-26T20:32:09.278Z,57.59
2022-07-26T20:35:10.950Z,57.35
2022-07-26T20:38:12.848Z,57.55
2022-07-26T20:41:14.496Z,57.72
2022-07-26T20:44:16.166Z,57.63
2022-07-26T20:47:20.514Z,57.83
2022-07-26T20:50:22.921Z,57.89
2022-07-26T20:53:25.767Z,58.17
2022-07-26T20:56:27.991Z,58.29
2022-07-26T20:59:29.707Z,58.65
2022-07-26T21:02:31.488Z,59.02
2022-07-26T21:05:33.162Z,58.84
2022-07-26T21:08:35.459Z,58.95
2022-07-26T21:11:37.704Z,59.15
2022-07-26T21:14:39.383Z,59.35
2022-07-26T21:17:41.409Z,59.75
2022-07-26T21:20:43.066Z,59.85
2022-07-26T21:23:44.766Z,60.07
2022-07-26T21:26:46.341Z,60.09
2022-07-26T21:29:47.920Z,60.11
2022-07-26T21:32:49.521Z,60.58
2022-07-26T21:35:51.322Z,60.89
2022-07-26T21:38:52.951Z,61.16
2022-07-26T21:41:54.556Z,61.54
2022-07-26T21:44:56.144Z,62.00
2022-07-26T21:47:57.787Z,62.17
2022-07-26T21:50:59.489Z,62.51
2022-07-26T21:54:01.798Z,62.68
2022-07-26T21:57:03.706Z,63.54
2022-07-26T22:00:06.332Z,63.72
2022-07-26T22:03:08.129Z,64.08
2022-07-26T22:06:10.914Z,64.23
2022-07-26T22:09:12.874Z,64.38
2022-07-26T22:12:14.840Z,64.64
2022-07-26T22:15:16.507Z,64.93
2022-07-26T22:18:20.289Z,65.13
2022-07-26T22:21:21.986Z,65.62
2022-07-26T22:24:23.650Z,65.75
2022-07-26T22:27:25.604Z,65.45
2022-07-26T22:30:28.499Z,65.52
2022-07-26T22:33:30.101Z,65.74
2022-07-26T22:36:31.765Z,66.18
2022-07-26T22:39:33.437Z,66.57
2022-07-26T22:42:35.142Z,66.79
2022-07-26T22:45:37.450Z,67.21
2022-07-26T22:48:42.163Z,67.33
2022-07-26T22:51:46.234Z,67.60
2022-07-26T22:54:47.970Z,67.54
2022-07-26T22:57:50.357Z,67.62
2022-07-26T23:00:52.085Z,67.73
2022-07-26T23:03:53.900Z,68.13
2022-07-26T23:06:55.861Z,68.18
2022-07-26T23:10:01.533Z,68.59
2022-07-26T23:13:03.178Z,69.08
2022-07-26T23:16:05.139Z,69.38
2022-07-26T23:19:07.096Z,69.70
2022-07-26T23:22:08.689Z,69.69
2022-07-26T23:25:10.398Z,69.87
2022-07-26T23:28:11.949Z,69.93
2022-07-26T23:31:34.026Z,70.30
2022-07-26T23:34:35.689Z,70.38
2022-07-26T23:37:37.329Z,70.65
2022-07-26T23:40:38.924Z,70.88
2022-07-26T23:43:40.475Z,71.07
2022-07-26T23:46:42.308Z,70.80
2022-07-26T23:49:43.945Z,70.89
2022-07-26T23:52:45.598Z,70.91
2022-07-26T23:55:49.135Z,71.19
2022-07-26T23:58:50.956Z,71.16
